Time,TemperatureF,DewpointF,PressureIn,WindDirection,WindDirectionDegrees,WindSpeedMPH,WindSpeedGustMPH,Humidity,HourlyPrecipIn,Conditions,Clouds,dailyrainin,SoftwareType,DateUTC
2013-04-10 00:00:00,51.4,43.4,31.05,SSE,158,0.0,0.0,74,0.00,,OVC040,0.00,VWS V14.00,2013-04-10 07:00:00,
2013-04-10 00:05:00,51.6,43.6,31.05,SSE,158,0.0,0.0,74,0.00,,OVC040,0.00,VWS V14.00,2013-04-10 07:05:00,
2013-04-10 00:10:00,51.6,43.6,31.04,SSE,158,0.0,0.0,74,0.00,,OVC040,0.00,VWS V14.00,2013-04-10 07:10:00,
2013-04-10 00:15:00,51.6,43.6,31.04,SSE,158,0.0,0.0,74,0.00,,OVC040,0.00,VWS V14.00,2013-04-10 07:15:00,
2013-04-10 00:20:00,51.6,43.6,31.05,SSE,158,0.0,0.0,74,0.00,,OVC040,0.00,VWS V14.00,2013-04-10 07:20:00,
2013-04-10 00:25:00,51.6,43.6,31.05,SSE,158,0.0,0.0,74,0.00,,OVC040,0.00,VWS V14.00,2013-04-10 07:25:00,
2013-04-10 00:30:00,51.6,43.6,31.05,SSE,158,0.0,0.0,74,0.00,,OVC040,0.00,VWS V14.00,2013-04-10 07:30:00,
2013-04-10 00:35:00,51.6,43.6,31.05,SSE,158,0.0,0.0,74,0.00,,OVC040,0.00,VWS V14.00,2013-04-10 07:35:00,
2013-04-10 00:40:00,51.6,43.6,31.05,SSE,158,0.0,0.0,74,0.00,,OVC040,0.00,VWS V14.00,2013-04-10 07:40:00,
2013-04-10 00:45:00,51.6,43.6,31.05,SSE,158,0.0,0.0,74,0.00,,OVC040,0.00,VWS V14.00,2013-04-10 07:45:00,
2013-04-10 00:50:00,51.6,43.6,31.04,SSE,158,0.0,0.0,74,0.00,,OVC040,0.00,VWS V14.00,2013-04-10 07:50:00,
2013-04-10 00:55:00,51.4,43.8,31.04,SSE,158,0.0,0.0,75,0.00,,OVC040,0.00,VWS V14.00,2013-04-10 07:55:00,
2013-04-10 01:00:00,51.0,43.7,31.04,SSE,158,0.0,0.0,76,0.00,,OVC040,0.00,VWS V14.00,2013-04-10 08:00:00,
2013-04-10 01:05:00,50.9,43.6,31.04,SSE,158,0.0,0.0,76,0.00,,OVC040,0.00,VWS V14.00,2013-04-10 08:05:00,
2013-04-10 01:10:00,50.9,44.0,31.04,SSE,158,0.0,0.0,77,0.00,,OVC040,0.00,VWS V14.00,2013-04-10 08:10:00,
2013-04-10 01:15:00,50.7,43.8,31.04,SSE,158,0.0,0.0,77,0.00,,OVC040,0.00,VWS V14.00,2013-04-10 08:15:00,
2013-04-10 01:20:00,50.9,44.0,31.04,SSE,158,0.0,0.0,77,0.00,,OVC040,0.00,VWS V14.00,2013-04-10 08:20:00,
2013-04-10 01:25:00,51.0,44.0,31.04,SSE,158,0.0,0.0,77,0.00,,OVC040,0.00,VWS V14.00,2013-04-10 08:25:00,
2013-04-10 01:30:00,51.0,44.0,31.03,SSE,158,0.0,0.0,77,0.00,,OVC040,0.00,VWS V14.00,2013-04-10 08:30:00,
2013-04-10 01:35:00,51.0,44.0,31.04,SSE,158,0.0,0.0,77,0.00,,OVC040,0.00,VWS V14.00,2013-04-10 08:35:00,
2013-04-10 01:40:00,51.2,43.9,31.03,SSE,158,0.0,0.0,76,0.00,,OVC044,0.00,VWS V14.00,2013-04-10 08:40:00,
2013-04-10 01:45:00,51.2,43.9,31.03,SSE,158,0.0,0.0,76,0.00,,OVC044,0.00,VWS V14.00,2013-04-10 08:45:00,
2013-04-10 01:50:00,51.4,43.8,31.03,SSE,158,0.0,0.0,75,0.00,,OVC044,0.00,VWS V14.00,2013-04-10 08:50:00,
2013-04-10 01:55:00,51.4,43.8,31.03,SSE,158,0.0,0.0,75,0.00,,OVC044,0.00,VWS V14.00,2013-04-10 08:55:00,
2013-04-10 02:00:00,51.4,43.8,31.02,SSE,158,0.0,0.0,75,0.00,,OVC044,0.00,VWS V14.00,2013-04-10 09:00:00,
2013-04-10 02:05:00,51.4,43.8,31.02,SSE,158,0.8,0.8,75,0.00,,OVC044,0.00,VWS V14.00,2013-04-10 09:05:00,
2013-04-10 02:10:00,51.4,43.8,31.02,SSE,158,0.0,0.0,75,0.00,,OVC044,0.00,VWS V14.00,2013-04-10 09:10:00,
2013-04-10 02:15:00,51.4,43.8,31.02,SSE,158,3.5,3.5,75,0.00,,OVC044,0.00,VWS V14.00,2013-04-10 09:15:00,
2013-04-10 02:20:00,51.4,43.8,31.02,SSE,158,0.0,0.0,75,0.00,,OVC044,0.00,VWS V14.00,2013-04-10 09:20:00,
2013-04-10 02:25:00,51.4,43.8,31.02,SSE,158,1.5,1.5,75,0.00,,OVC044,0.00,VWS V14.00,2013-04-10 09:25:00,
2013-04-10 02:30:00,51.4,43.8,31.02,SSE,158,0.0,0.0,75,0.00,,OVC044,0.00,VWS V14.00,2013-04-10 09:30:00,
2013-04-10 02:35:00,51.4,43.8,31.01,SSE,158,0.0,0.0,75,0.00,,OVC044,0.00,VWS V14.00,2013-04-10 09:35:00,
2013-04-10 02:40:00,51.4,43.8,31.01,SSE,158,2.0,2.0,75,0.00,,OVC044,0.00,VWS V14.00,2013-04-10 09:40:00,
2013-04-10 02:45:00,51.4,43.8,31.01,SSE,158,0.0,0.0,75,0.00,,OVC044,0.00,VWS V14.00,2013-04-10 09:45:00,
2013-04-10 02:50:00,51.4,43.8,31.01,SSE,158,4.2,4.2,75,0.00,,OVC044,0.00,VWS V14.00,2013-04-10 09:50:00,
2013-04-10 02:55:00,51.4,43.8,31.01,SSE,158,1.5,1.5,75,0.00,,OVC044,0.00,VWS V14.00,2013-04-10 09:55:00,
2013-04-10 03:00:00,51.4,43.8,31.00,SSE,158,3.8,3.8,75,0.00,,OVC044,0.00,VWS V14.00,2013-04-10 10:00:00,
2013-04-10 03:05:00,51.2,43.9,31.00,SSE,158,0.0,0.0,76,0.00,,OVC044,0.00,VWS V14.00,2013-04-10 10:05:00,
2013-04-10 03:10:00,51.0,43.7,31.00,SE,135,0.0,0.0,76,0.00,,OVC044,0.00,VWS V14.00,2013-04-10 10:10:00,
2013-04-10 03:15:00,51.0,43.7,31.00,SE,135,0.0,0.0,76,0.00,,OVC044,0.00,VWS V14.00,2013-04-10 10:15:00,
2013-04-10 03:20:00,50.9,43.6,31.00,SE,135,0.0,0.0,76,0.00,,OVC044,0.00,VWS V14.00,2013-04-10 10:20:00,
2013-04-10 03:25:00,50.9,43.6,31.00,SE,135,0.0,0.0,76,0.00,,OVC044,0.00,VWS V14.00,2013-04-10 10:25:00,
2013-04-10 03:30:00,50.7,43.4,31.01,SE,135,0.0,0.0,76,0.00,,OVC044,0.00,VWS V14.00,2013-04-10 10:30:00,
2013-04-10 03:35:00,50.7,43.4,31.00,SE,135,0.0,0.0,76,0.00,,OVC044,0.00,VWS V14.00,2013-04-10 10:35:00,
2013-04-10 03:40:00,50.7,43.1,31.00,SE,135,0.0,0.0,75,0.00,,OVC042,0.00,VWS V14.00,2013-04-10 10:40:00,
2013-04-10 03:45:00,50.7,43.1,31.00,SE,135,0.0,0.0,75,0.00,,OVC042,0.00,VWS V14.00,2013-04-10 10:45:00,
2013-04-10 03:50:00,50.7,43.1,31.00,SE,135,0.0,0.0,75,0.00,,OVC042,0.00,VWS V14.00,2013-04-10 10:50:00,
2013-04-10 03:55:00,50.7,43.1,30.99,SE,135,0.0,0.0,75,0.00,,OVC042,0.00,VWS V14.00,2013-04-10 10:55:00,
2013-04-10 04:00:00,50.7,43.4,30.99,SE,135,0.0,0.0,76,0.00,,OVC042,0.00,VWS V14.00,2013-04-10 11:00:00,
2013-04-10 04:05:00,50.7,43.4,31.00,SE,135,0.0,0.0,76,0.00,,OVC042,0.00,VWS V14.00,2013-04-10 11:05:00,
2013-04-10 04:10:00,50.5,43.2,31.00,SE,135,0.0,0.0,76,0.00,,OVC042,0.00,VWS V14.00,2013-04-10 11:10:00,
2013-04-10 04:15:00,50.5,43.2,30.99,SE,135,0.0,0.0,76,0.00,,OVC042,0.00,VWS V14.00,2013-04-10 11:15:00,
2013-04-10 04:20:00,50.1,43.2,30.99,ESE,112,0.0,0.0,77,0.00,,OVC042,0.00,VWS V14.00,2013-04-10 11:20:00,
2013-04-10 04:25:00,50.0,43.1,30.99,ESE,112,0.0,0.0,77,0.00,,OVC042,0.00,VWS V14.00,2013-04-10 11:25:00,
2013-04-10 04:30:00,49.8,42.9,30.99,ESE,112,0.0,0.0,77,0.00,,OVC042,0.00,VWS V14.00,2013-04-10 11:30:00,
2013-04-10 04:35:00,49.6,42.7,30.99,ESE,112,0.0,0.0,77,0.00,,OVC042,0.00,VWS V14.00,2013-04-10 11:35:00,
2013-04-10 04:40:00,49.6,42.7,30.98,ESE,112,0.0,0.0,77,0.00,,OVC036,0.00,VWS V14.00,2013-04-10 11:40:00,
2013-04-10 04:45:00,49.8,42.9,30.99,ESE,112,0.0,0.0,77,0.00,,OVC036,0.00,VWS V14.00,2013-04-10 11:45:00,
2013-04-10 04:50:00,49.8,42.9,30.98,ESE,112,0.0,0.0,77,0.00,,OVC036,0.00,VWS V14.00,2013-04-10 11:50:00,
2013-04-10 04:55:00,49.8,42.9,30.98,ESE,112,0.0,0.0,77,0.00,,OVC036,0.00,VWS V14.00,2013-04-10 11:55:00,
2013-04-10 05:00:00,49.8,43.2,30.98,ESE,112,0.0,0.0,78,0.00,,OVC036,0.00,VWS V14.00,2013-04-10 12:00:00,
2013-04-10 05:05:00,49.8,43.2,30.98,ESE,112,0.0,0.0,78,0.00,,OVC036,0.00,VWS V14.00,2013-04-10 12:05:00,
2013-04-10 05:10:00,49.8,43.2,30.98,ESE,112,0.0,0.0,78,0.00,,OVC036,0.00,VWS V14.00,2013-04-10 12:10:00,
2013-04-10 05:15:00,49.8,43.2,30.98,ESE,112,0.0,0.0,78,0.00,,OVC036,0.00,VWS V14.00,2013-04-10 12:15:00,
2013-04-10 05:20:00,49.8,43.2,30.98,ESE,112,0.0,0.0,78,0.00,,OVC036,0.00,VWS V14.00,2013-04-10 12:20:00,
2013-04-10 05:25:00,49.8,43.2,30.97,ESE,112,0.0,0.0,78,0.00,,OVC036,0.00,VWS V14.00,2013-04-10 12:25:00,
2013-04-10 05:30:00,49.8,43.2,30.97,ESE,112,0.0,0.0,78,0.00,,OVC036,0.00,VWS V14.00,2013-04-10 12:30:00,
2013-04-10 05:35:00,50.0,43.4,30.97,ESE,112,0.0,0.0,78,0.00,,OVC036,0.00,VWS V14.00,2013-04-10 12:35:00,
2013-04-10 05:40:00,50.1,43.5,30.97,ESE,112,0.0,0.0,78,0.00,,OVC036,0.00,VWS V14.00,2013-04-10 12:40:00,
2013-04-10 05:45:00,50.1,43.5,30.97,ESE,112,0.0,0.0,78,0.00,,OVC036,0.00,VWS V14.00,2013-04-10 12:45:00,
2013-04-10 05:50:00,50.1,43.5,30.97,ESE,112,0.0,0.0,78,0.00,,OVC036,0.00,VWS V14.00,2013-04-10 12:50:00,
2013-04-10 05:55:00,50.1,43.5,30.97,ESE,112,0.0,0.0,78,0.00,,OVC036,0.00,VWS V14.00,2013-04-10 12:55:00,
2013-04-10 06:00:00,50.1,43.8,30.97,ESE,112,0.0,0.0,79,0.00,,OVC036,0.00,VWS V14.00,2013-04-10 13:00:00,
2013-04-10 06:05:00,50.1,44.2,30.97,SE,135,0.0,0.0,80,0.00,,OVC036,0.00,VWS V14.00,2013-04-10 13:05:00,
2013-04-10 06:10:00,50.5,44.6,30.96,SE,135,2.2,2.2,80,0.00,,OVC036,0.00,VWS V14.00,2013-04-10 13:10:00,
2013-04-10 06:15:00,50.7,44.8,30.96,SE,135,7.1,7.1,80,0.00,,OVC036,0.00,VWS V14.00,2013-04-10 13:15:00,
2013-04-10 06:20:00,50.9,44.6,30.95,SSE,158,5.5,5.5,79,0.00,,OVC036,0.00,VWS V14.00,2013-04-10 13:20:00,
2013-04-10 06:25:00,51.2,44.9,30.96,SSE,158,7.1,7.1,79,0.00,,OVC036,0.00,VWS V14.00,2013-04-10 13:25:00,
2013-04-10 06:30:00,51.4,45.1,30.95,SE,135,7.6,7.6,79,0.00,,OVC036,0.00,VWS V14.00,2013-04-10 13:30:00,
2013-04-10 06:35:00,51.4,45.1,30.95,SE,135,3.3,3.3,79,0.00,,OVC036,0.00,VWS V14.00,2013-04-10 13:35:00,
2013-04-10 06:40:00,51.4,45.1,30.94,SSE,158,6.7,6.7,79,0.00,,OVC036,0.00,VWS V14.00,2013-04-10 13:40:00,
2013-04-10 06:45:00,51.6,45.3,30.94,SE,135,7.1,7.1,79,0.00,,OVC036,0.00,VWS V14.00,2013-04-10 13:45:00,
2013-04-10 06:50:00,51.6,45.3,30.94,SSE,158,2.2,2.2,79,0.00,,OVC036,0.00,VWS V14.00,2013-04-10 13:50:00,
2013-04-10 06:55:00,51.6,45.3,30.94,SSE,158,7.6,7.6,79,0.00,,OVC036,0.00,VWS V14.00,2013-04-10 13:55:00,
2013-04-10 07:00:00,51.6,45.0,30.94,SSE,158,11.1,11.1,78,0.00,,OVC036,0.00,VWS V14.00,2013-04-10 14:00:00,
2013-04-10 07:05:00,51.9,44.9,30.94,SSE,158,6.4,6.4,77,0.00,,OVC036,0.00,VWS V14.00,2013-04-10 14:05:00,
2013-04-10 07:10:00,52.1,45.1,30.94,SSE,158,3.3,3.3,77,0.00,,OVC036,0.00,VWS V14.00,2013-04-10 14:10:00,
2013-04-10 07:15:00,52.3,45.3,30.94,SSE,158,3.3,3.3,77,0.00,,OVC036,0.00,VWS V14.00,2013-04-10 14:15:00,
2013-04-10 07:20:00,52.3,45.0,30.94,South,180,6.7,6.7,76,0.00,,OVC036,0.00,VWS V14.00,2013-04-10 14:20:00,
2013-04-10 07:25:00,52.5,45.2,30.94,SSE,158,5.5,5.5,76,0.00,,OVC036,0.00,VWS V14.00,2013-04-10 14:25:00,
2013-04-10 07:30:00,52.5,45.2,30.94,SE,135,0.0,0.0,76,0.00,,OVC036,0.00,VWS V14.00,2013-04-10 14:30:00,
2013-04-10 07:35:00,52.7,45.4,30.93,SSE,158,5.8,5.8,76,0.00,,OVC036,0.00,VWS V14.00,2013-04-10 14:35:00,
2013-04-10 07:40:00,52.8,45.1,30.94,SSE,158,6.0,6.0,75,0.00,,OVC034,0.00,VWS V14.00,2013-04-10 14:40:00,
2013-04-10 07:45:00,52.8,45.1,30.92,SSE,158,10.2,10.2,75,0.00,,OVC034,0.00,VWS V14.00,2013-04-10 14:45:00,
2013-04-10 07:50:00,52.8,45.1,30.92,SE,135,5.8,10.0,75,0.00,,OVC034,0.00,VWS V14.00,2013-04-10 14:50:00,
2013-04-10 07:55:00,52.8,45.1,30.92,SSE,158,8.0,8.0,75,0.00,,OVC034,0.00,VWS V14.00,2013-04-10 14:55:00,
2013-04-10 08:00:00,52.8,45.1,30.92,SSE,158,6.4,8.7,75,0.00,,OVC034,0.00,VWS V14.00,2013-04-10 15:00:00,
2013-04-10 08:05:00,53.2,45.5,30.92,South,180,6.0,6.0,75,0.00,,OVC034,0.00,VWS V14.00,2013-04-10 15:05:00,
2013-04-10 08:10:00,53.2,45.5,30.91,SSE,158,2.9,7.1,75,0.00,,OVC034,0.00,VWS V14.00,2013-04-10 15:10:00,
2013-04-10 08:15:00,53.2,45.5,30.92,SSE,158,10.5,10.5,75,0.00,,OVC034,0.00,VWS V14.00,2013-04-10 15:15:00,
2013-04-10 08:20:00,53.2,45.8,30.91,SSE,158,7.8,7.8,76,0.00,,OVC034,0.00,VWS V14.00,2013-04-10 15:20:00,
2013-04-10 08:25:00,53.2,45.8,30.90,South,180,10.0,10.0,76,0.00,,OVC034,0.00,VWS V14.00,2013-04-10 15:25:00,
2013-04-10 08:30:00,53.2,45.8,30.90,SSE,158,10.5,10.5,76,0.00,,OVC034,0.00,VWS V14.00,2013-04-10 15:30:00,
2013-04-10 08:35:00,53.2,45.8,30.91,South,180,8.5,8.5,76,0.00,,OVC034,0.00,VWS V14.00,2013-04-10 15:35:00,
2013-04-10 08:40:00,52.8,45.5,30.91,SSW,202,13.8,13.8,76,0.00,,OVC034,0.00,VWS V14.00,2013-04-10 15:40:00,
2013-04-10 08:45:00,53.0,45.7,30.90,South,180,8.9,8.9,76,0.00,,OVC023,0.00,VWS V14.00,2013-04-10 15:45:00,
2013-04-10 08:50:00,53.2,45.5,30.90,South,180,12.3,12.3,75,0.00,,OVC023,0.00,VWS V14.00,2013-04-10 15:50:00,
2013-04-10 08:55:00,52.8,45.5,30.90,South,180,8.9,8.9,76,0.00,,OVC023,0.00,VWS V14.00,2013-04-10 15:55:00,
2013-04-10 09:00:00,52.8,45.5,30.90,South,180,9.8,9.8,76,0.00,,OVC023,0.00,VWS V14.00,2013-04-10 16:00:00,
2013-04-10 09:05:00,52.7,45.7,30.89,SSW,202,17.0,17.0,77,0.00,,OVC023,0.00,VWS V14.00,2013-04-10 16:05:00,
2013-04-10 09:10:00,52.5,45.5,30.90,South,180,14.0,14.0,77,0.00,,OVC023,0.00,VWS V14.00,2013-04-10 16:10:00,
2013-04-10 09:15:00,52.5,45.8,30.91,South,180,14.9,14.9,78,0.00,,OVC023,0.00,VWS V14.00,2013-04-10 16:15:00,
2013-04-10 09:20:00,52.5,45.8,30.91,SSE,158,3.5,3.5,78,0.00,,OVC023,0.00,VWS V14.00,2013-04-10 16:20:00,
2013-04-10 09:25:00,52.3,46.0,30.91,South,180,10.5,10.5,79,0.00,,OVC023,0.00,VWS V14.00,2013-04-10 16:25:00,
2013-04-10 09:30:00,51.9,45.6,30.91,SSE,158,7.3,7.3,79,0.00,,OVC023,0.00,VWS V14.00,2013-04-10 16:30:00,
2013-04-10 09:35:00,51.6,46.0,30.92,South,180,11.1,11.1,81,0.00,,OVC023,0.00,VWS V14.00,2013-04-10 16:35:00,
2013-04-10 09:40:00,51.2,45.9,30.92,South,180,11.6,11.6,82,0.00,,OVC023,0.00,VWS V14.00,2013-04-10 16:40:00,
2013-04-10 09:45:00,50.9,45.9,30.91,South,180,12.3,12.3,83,0.00,,OVC055,0.00,VWS V14.00,2013-04-10 16:45:00,
2013-04-10 09:50:00,50.7,46.0,30.91,South,180,4.4,4.4,84,0.00,,OVC055,0.00,VWS V14.00,2013-04-10 16:50:00,
2013-04-10 09:55:00,50.7,46.4,30.91,SSE,158,6.9,6.9,85,0.00,,OVC055,0.00,VWS V14.00,2013-04-10 16:55:00,
2013-04-10 10:00:00,50.5,46.2,30.90,South,180,14.7,14.7,85,0.00,,OVC055,0.00,VWS V14.00,2013-04-10 17:00:00,
2013-04-10 10:05:00,50.5,46.2,30.91,South,180,3.8,3.8,85,0.00,,OVC019,0.00,VWS V14.00,2013-04-10 17:05:00,
2013-04-10 10:10:00,50.5,46.5,30.91,South,180,11.4,11.4,86,0.00,,OVC019,0.00,VWS V14.00,2013-04-10 17:10:00,
2013-04-10 10:15:00,50.7,46.7,30.92,SSE,158,0.0,0.0,86,0.00,,OVC019,0.00,VWS V14.00,2013-04-10 17:15:00,
2013-04-10 10:20:00,50.7,46.7,30.93,South,180,2.0,2.0,86,0.00,,OVC019,0.00,VWS V14.00,2013-04-10 17:20:00,
2013-04-10 10:25:00,50.9,46.9,30.93,South,180,0.0,0.0,86,0.00,,OVC019,0.00,VWS V14.00,2013-04-10 17:25:00,
2013-04-10 10:30:00,51.0,47.0,30.93,SSE,158,1.7,1.7,86,0.00,,OVC019,0.00,VWS V14.00,2013-04-10 17:30:00,
2013-04-10 10:35:00,51.2,47.5,30.94,SSE,158,1.7,1.7,87,0.00,,OVC019,0.00,VWS V14.00,2013-04-10 17:35:00,
2013-04-10 10:40:00,51.2,47.5,30.94,South,180,7.8,7.8,87,0.00,,OVC019,0.00,VWS V14.00,2013-04-10 17:40:00,
2013-04-10 10:45:00,51.2,47.5,30.94,SSE,158,4.2,4.2,87,0.00,,-RA,0.00,VWS V14.00,2013-04-10 17:45:00,
2013-04-10 10:50:00,51.2,47.5,30.94,SSE,158,0.0,0.0,87,0.00,,-RA,0.00,VWS V14.00,2013-04-10 17:50:00,
2013-04-10 10:55:00,51.2,47.8,30.94,South,180,6.2,6.2,88,0.00,,-RA,0.00,VWS V14.00,2013-04-10 17:55:00,
2013-04-10 11:00:00,51.4,48.0,30.95,South,180,2.4,2.4,88,0.00,,-RA,0.00,VWS V14.00,2013-04-10 18:00:00,
2013-04-10 11:05:00,51.6,48.2,30.94,SSE,158,2.6,2.6,88,0.00,,-RA,0.00,VWS V14.00,2013-04-10 18:05:00,
2013-04-10 11:10:00,51.6,48.2,30.95,SSE,158,2.4,2.4,88,0.00,,-RA,0.00,VWS V14.00,2013-04-10 18:10:00,
2013-04-10 11:15:00,51.6,48.2,30.95,SSE,158,5.8,5.8,88,0.00,,-RA,0.00,VWS V14.00,2013-04-10 18:15:00,
2013-04-10 11:20:00,51.6,48.2,30.95,South,180,7.3,7.3,88,0.00,,-RA,0.00,VWS V14.00,2013-04-10 18:20:00,
2013-04-10 11:25:00,51.6,48.2,30.95,SSE,158,4.4,4.4,88,0.00,,-RA,0.00,VWS V14.00,2013-04-10 18:25:00,
2013-04-10 11:30:00,52.5,49.4,30.95,South,180,3.1,3.1,89,0.00,,-RA,0.00,VWS V14.00,2013-04-10 18:30:00,
2013-04-10 11:35:00,53.2,49.7,30.95,SSE,158,9.6,9.6,88,0.00,,-RA,0.00,VWS V14.00,2013-04-10 18:35:00,
2013-04-10 11:40:00,53.2,49.4,30.95,South,180,0.0,0.0,87,0.00,,-RA,0.00,VWS V14.00,2013-04-10 18:40:00,
2013-04-10 11:45:00,53.7,49.9,30.95,SSE,158,4.2,4.2,87,0.00,,-RA,0.00,VWS V14.00,2013-04-10 18:45:00,
2013-04-10 11:50:00,53.7,49.9,30.96,SSE,158,0.0,0.0,87,0.00,,-RA,0.00,VWS V14.00,2013-04-10 18:50:00,
2013-04-10 11:55:00,53.9,50.1,30.96,SW,225,0.0,0.0,87,0.00,,-RA,0.00,VWS V14.00,2013-04-10 18:55:00,
2013-04-10 12:00:00,53.9,49.8,30.97,NW,315,2.9,2.9,86,0.00,,-RA,0.00,VWS V14.00,2013-04-10 19:00:00,
2013-04-10 12:05:00,53.7,49.6,30.97,West,270,0.0,0.0,86,0.00,,-RA,0.00,VWS V14.00,2013-04-10 19:05:00,
2013-04-10 12:10:00,54.1,49.7,30.97,West,270,5.5,5.5,85,0.00,,-RA,0.00,VWS V14.00,2013-04-10 19:10:00,
2013-04-10 12:15:00,55.4,49.7,30.97,WSW,248,10.2,10.2,81,0.00,,-RA,0.00,VWS V14.00,2013-04-10 19:15:00,
2013-04-10 12:20:00,58.6,51.4,30.98,NW,315,13.6,13.6,77,0.00,,-RA,0.00,VWS V14.00,2013-04-10 19:20:00,
2013-04-10 12:25:00,60.6,51.2,30.98,WNW,292,7.1,7.1,71,0.00,,-RA,0.00,VWS V14.00,2013-04-10 19:25:00,
2013-04-10 12:30:00,62.7,51.6,30.98,West,270,9.8,9.8,67,0.00,,-RA,0.00,VWS V14.00,2013-04-10 19:30:00,
2013-04-10 12:35:00,64.0,52.0,30.99,NW,315,12.5,12.5,65,0.00,,-RA,0.00,VWS V14.00,2013-04-10 19:35:00,
2013-04-10 12:40:00,61.8,48.7,30.99,WNW,292,10.9,10.9,62,0.00,,-RA,0.00,VWS V14.00,2013-04-10 19:40:00,
2013-04-10 12:45:00,59.3,48.4,30.99,NW,315,8.0,8.0,67,0.00,,-RA,0.00,VWS V14.00,2013-04-10 19:45:00,
2013-04-10 12:50:00,57.9,48.6,30.99,NW,315,11.4,11.4,71,0.00,,-RA,0.00,VWS V14.00,2013-04-10 19:50:00,
2013-04-10 12:55:00,56.3,47.4,31.00,NW,315,19.6,19.6,72,0.00,,-RA,0.00,VWS V14.00,2013-04-10 19:55:00,
2013-04-10 13:00:00,55.0,46.9,31.00,West,270,9.3,9.3,74,0.00,,-RA,0.00,VWS V14.00,2013-04-10 20:00:00,
2013-04-10 13:05:00,55.7,47.2,31.00,NW,315,6.9,6.9,73,0.00,,-RA,0.00,VWS V14.00,2013-04-10 20:05:00,
2013-04-10 13:10:00,58.4,49.4,31.00,NW,315,9.1,9.1,72,0.00,,-RA,0.00,VWS V14.00,2013-04-10 20:10:00,
2013-04-10 13:15:00,60.9,49.5,31.01,North,0,2.4,2.4,66,0.00,,-RA,0.00,VWS V14.00,2013-04-10 20:15:00,
2013-04-10 13:20:00,60.6,48.4,31.01,NW,315,6.7,6.7,64,0.00,,-RA,0.00,VWS V14.00,2013-04-10 20:20:00,
2013-04-10 13:25:00,58.8,47.1,31.02,NNW,338,12.3,12.3,65,0.00,,-RA,0.00,VWS V14.00,2013-04-10 20:25:00,
2013-04-10 13:30:00,56.8,46.0,31.02,West,270,8.2,8.2,67,0.00,,-RA,0.00,VWS V14.00,2013-04-10 20:30:00,
2013-04-10 13:35:00,56.4,45.2,31.02,NW,315,10.9,10.9,66,0.00,,-RA,0.00,VWS V14.00,2013-04-10 20:35:00,
2013-04-10 13:40:00,56.4,45.6,31.02,West,270,6.7,6.7,67,0.00,,-RA,0.00,VWS V14.00,2013-04-10 20:40:00,
2013-04-10 13:45:00,58.8,46.7,31.03,WNW,292,10.0,13.6,64,0.00,,SCT048,0.00,VWS V14.00,2013-04-10 20:45:00,
2013-04-10 13:50:00,59.9,46.9,31.03,NW,315,3.5,3.5,62,0.00,,SCT048,0.00,VWS V14.00,2013-04-10 20:50:00,
2013-04-10 13:55:00,59.0,45.6,31.03,WNW,292,12.7,12.7,61,0.00,,SCT048,0.00,VWS V14.00,2013-04-10 20:55:00,
2013-04-10 14:00:00,58.8,45.8,31.04,West,270,8.5,8.5,62,0.00,,SCT048,0.00,VWS V14.00,2013-04-10 21:00:00,
2013-04-10 14:05:00,58.8,45.4,31.04,West,270,11.4,11.4,61,0.00,,SCT048,0.00,VWS V14.00,2013-04-10 21:05:00,
2013-04-10 14:10:00,58.2,44.8,31.05,West,270,9.3,9.3,61,0.00,,SCT048,0.00,VWS V14.00,2013-04-10 21:10:00,
2013-04-10 14:15:00,57.7,44.8,31.05,NW,315,8.9,8.9,62,0.00,,SCT048,0.00,VWS V14.00,2013-04-10 21:15:00,
2013-04-10 14:20:00,57.3,44.8,31.05,NW,315,6.4,6.4,63,0.00,,SCT048,0.00,VWS V14.00,2013-04-10 21:20:00,
2013-04-10 14:25:00,57.5,46.2,31.05,NNW,338,11.4,11.4,66,0.00,,SCT048,0.00,VWS V14.00,2013-04-10 21:25:00,
2013-04-10 14:30:00,57.3,46.0,31.05,NNW,338,8.2,8.2,66,0.00,,SCT048,0.00,VWS V14.00,2013-04-10 21:30:00,
2013-04-10 14:35:00,57.3,46.0,31.05,NNW,338,10.9,10.9,66,0.00,,SCT048,0.00,VWS V14.00,2013-04-10 21:35:00,
2013-04-10 14:40:00,56.8,45.2,31.05,WNW,292,10.7,10.7,65,0.00,,SCT048,0.00,VWS V14.00,2013-04-10 21:40:00,
2013-04-10 14:45:00,55.9,44.7,31.06,NNW,338,2.4,2.4,66,0.00,,BKN037,0.00,VWS V14.00,2013-04-10 21:45:00,
2013-04-10 14:50:00,55.5,44.3,31.06,NW,315,9.3,9.3,66,0.00,,BKN037,0.00,VWS V14.00,2013-04-10 21:50:00,
2013-04-10 14:55:00,55.2,44.5,31.06,NW,315,12.0,12.0,67,0.00,,BKN037,0.00,VWS V14.00,2013-04-10 21:55:00,
2013-04-10 15:00:00,55.9,44.7,31.06,West,270,15.8,15.8,66,0.00,,BKN037,0.00,VWS V14.00,2013-04-10 22:00:00,
2013-04-10 15:05:00,56.3,44.7,31.06,NW,315,9.1,9.1,65,0.00,,BKN037,0.00,VWS V14.00,2013-04-10 22:05:00,
2013-04-10 15:10:00,56.3,44.7,31.06,WNW,292,7.8,7.8,65,0.00,,BKN037,0.00,VWS V14.00,2013-04-10 22:10:00,
2013-04-10 15:15:00,56.8,45.2,31.06,NW,315,11.6,11.6,65,0.00,,BKN037,0.00,VWS V14.00,2013-04-10 22:15:00,
2013-04-10 15:20:00,56.4,44.4,31.06,WNW,292,12.9,12.9,64,0.00,,BKN037,0.00,VWS V14.00,2013-04-10 22:20:00,
2013-04-10 15:25:00,55.9,43.5,31.06,NW,315,10.9,10.9,63,0.00,,BKN037,0.00,VWS V14.00,2013-04-10 22:25:00,
2013-04-10 15:30:00,55.9,44.3,31.05,WNW,292,14.9,14.9,65,0.00,,BKN037,0.00,VWS V14.00,2013-04-10 22:30:00,
2013-04-10 15:35:00,56.6,45.0,31.05,NW,315,7.6,7.6,65,0.00,,BKN037,0.00,VWS V14.00,2013-04-10 22:35:00,
2013-04-10 15:40:00,57.7,45.2,31.05,West,270,4.9,4.9,63,0.00,,BKN037,0.00,VWS V14.00,2013-04-10 22:40:00,
2013-04-10 15:45:00,58.8,45.8,31.05,North,0,6.9,6.9,62,0.00,,CLR,0.00,VWS V14.00,2013-04-10 22:45:00,
2013-04-10 15:50:00,58.8,45.8,31.06,NW,315,10.0,10.0,62,0.00,,CLR,0.00,VWS V14.00,2013-04-10 22:50:00,
2013-04-10 15:55:00,57.9,45.0,31.06,North,0,7.8,7.8,62,0.00,,CLR,0.00,VWS V14.00,2013-04-10 22:55:00,
2013-04-10 16:00:00,57.3,44.4,31.06,North,0,12.3,12.3,62,0.00,,CLR,0.00,VWS V14.00,2013-04-10 23:00:00,
2013-04-10 16:05:00,56.8,44.3,31.06,NW,315,12.3,12.3,63,0.00,,CLR,0.00,VWS V14.00,2013-04-10 23:05:00,
2013-04-10 16:10:00,56.8,43.9,31.05,WNW,292,10.9,10.9,62,0.00,,CLR,0.00,VWS V14.00,2013-04-10 23:10:00,
2013-04-10 16:15:00,57.0,44.1,31.05,WNW,292,4.0,4.0,62,0.00,,CLR,0.00,VWS V14.00,2013-04-10 23:15:00,
2013-04-10 16:20:00,56.8,43.9,31.06,West,270,4.4,4.4,62,0.00,,CLR,0.00,VWS V14.00,2013-04-10 23:20:00,
2013-04-10 16:25:00,56.3,43.0,31.05,West,270,6.9,6.9,61,0.00,,CLR,0.00,VWS V14.00,2013-04-10 23:25:00,
2013-04-10 16:30:00,55.9,42.7,31.05,WSW,248,12.3,12.3,61,0.00,,CLR,0.00,VWS V14.00,2013-04-10 23:30:00,
2013-04-10 16:35:00,56.3,43.0,31.05,WSW,248,8.2,8.2,61,0.00,,CLR,0.00,VWS V14.00,2013-04-10 23:35:00,
2013-04-10 16:40:00,56.4,43.6,31.05,NW,315,7.3,7.3,62,0.00,,CLR,0.00,VWS V14.00,2013-04-10 23:40:00,
2013-04-10 16:45:00,57.0,43.3,31.05,WNW,292,10.2,10.2,60,0.00,,CLR,0.00,VWS V14.00,2013-04-10 23:45:00,
2013-04-10 16:50:00,57.7,43.0,31.05,NW,315,10.7,10.7,58,0.00,,CLR,0.00,VWS V14.00,2013-04-10 23:50:00,
2013-04-10 16:55:00,57.2,43.0,31.05,NNW,338,0.0,0.0,59,0.00,,CLR,0.00,VWS V14.00,2013-04-10 23:55:00,
2013-04-10 17:00:00,56.8,42.6,31.05,North,0,9.8,9.8,59,0.00,,CLR,0.00,VWS V14.00,2013-04-11 00:00:00,
2013-04-10 17:05:00,55.5,42.3,31.05,NNW,338,13.6,13.6,61,0.00,,CLR,0.00,VWS V14.00,2013-04-11 00:05:00,
2013-04-10 17:10:00,55.0,41.8,31.05,NNW,338,6.4,6.4,61,0.00,,CLR,0.00,VWS V14.00,2013-04-11 00:10:00,
2013-04-10 17:15:00,55.2,42.0,31.05,North,0,11.1,11.1,61,0.00,,CLR,0.00,VWS V14.00,2013-04-11 00:15:00,
2013-04-10 17:20:00,55.9,42.7,31.05,NW,315,11.1,11.1,61,0.00,,CLR,0.00,VWS V14.00,2013-04-11 00:20:00,
2013-04-10 17:25:00,55.5,42.3,31.05,NNW,338,10.0,10.0,61,0.00,,SCT039,0.00,VWS V14.00,2013-04-11 00:25:00,
2013-04-10 17:30:00,55.2,42.4,31.05,NW,315,8.5,8.5,62,0.00,,SCT039,0.00,VWS V14.00,2013-04-11 00:30:00,
2013-04-10 17:35:00,55.4,42.2,31.05,NW,315,0.0,0.0,61,0.00,,SCT039,0.00,VWS V14.00,2013-04-11 00:35:00,
2013-04-10 17:40:00,55.2,41.6,31.05,NNW,338,11.8,11.8,60,0.00,,SCT039,0.00,VWS V14.00,2013-04-11 00:40:00,
2013-04-10 17:45:00,54.5,40.9,31.05,NNW,338,11.4,11.4,60,0.00,,SCT039,0.00,VWS V14.00,2013-04-11 00:45:00,
2013-04-10 17:50:00,53.9,40.8,31.06,NNW,338,13.4,13.4,61,0.00,,SCT039,0.00,VWS V14.00,2013-04-11 00:50:00,
2013-04-10 17:55:00,53.4,40.7,31.06,NNW,338,13.1,13.1,62,0.00,,SCT039,0.00,VWS V14.00,2013-04-11 00:55:00,
2013-04-10 18:00:00,52.8,40.6,31.06,NNW,338,17.0,17.0,63,0.00,,SCT039,0.00,VWS V14.00,2013-04-11 01:00:00,
2013-04-10 18:05:00,52.7,40.5,31.06,NW,315,10.0,10.0,63,0.00,,SCT039,0.00,VWS V14.00,2013-04-11 01:05:00,
2013-04-10 18:10:00,52.8,41.0,31.06,NW,315,7.3,7.3,64,0.00,,SCT039,0.00,VWS V14.00,2013-04-11 01:10:00,
2013-04-10 18:15:00,53.7,41.8,31.07,NNW,338,7.3,7.3,64,0.00,,SCT039,0.00,VWS V14.00,2013-04-11 01:15:00,
2013-04-10 18:20:00,53.7,41.4,31.06,NW,315,9.1,9.1,63,0.00,,SCT039,0.00,VWS V14.00,2013-04-11 01:20:00,
2013-04-10 18:25:00,53.6,41.3,31.07,NW,315,12.0,12.0,63,0.00,,SCT039,0.00,VWS V14.00,2013-04-11 01:25:00,
2013-04-10 18:30:00,54.3,42.0,31.06,WNW,292,2.9,2.9,63,0.00,,SCT039,0.00,VWS V14.00,2013-04-11 01:30:00,
2013-04-10 18:35:00,54.3,40.7,31.06,West,270,6.0,6.0,60,0.00,,SCT039,0.00,VWS V14.00,2013-04-11 01:35:00,
2013-04-10 18:40:00,53.2,40.1,31.07,West,270,3.5,3.5,61,0.00,,SCT039,0.00,VWS V14.00,2013-04-11 01:40:00,
2013-04-10 18:45:00,52.7,39.6,31.07,WNW,292,6.0,6.0,61,0.00,,SCT039,0.00,VWS V14.00,2013-04-11 01:45:00,
2013-04-10 18:50:00,52.8,40.6,31.06,NNW,338,9.1,9.1,63,0.00,,SCT039,0.00,VWS V14.00,2013-04-11 01:50:00,
2013-04-10 18:55:00,52.8,40.6,31.07,NNW,338,9.1,9.1,63,0.00,,SCT039,0.00,VWS V14.00,2013-04-11 01:55:00,
2013-04-10 19:00:00,52.8,41.0,31.07,NNW,338,5.1,5.1,64,0.00,,SCT039,0.00,VWS V14.00,2013-04-11 02:00:00,
2013-04-10 19:05:00,52.3,40.9,31.07,NW,315,6.9,6.9,65,0.00,,SCT043,0.00,VWS V14.00,2013-04-11 02:05:00,
2013-04-10 19:10:00,51.6,40.6,31.07,NW,315,10.2,10.2,66,0.00,,SCT043,0.00,VWS V14.00,2013-04-11 02:10:00,
2013-04-10 19:15:00,51.4,40.4,31.07,NW,315,7.1,7.1,66,0.00,,SCT043,0.00,VWS V14.00,2013-04-11 02:15:00,
2013-04-10 19:20:00,50.9,40.3,31.07,NW,315,6.2,6.2,67,0.00,,SCT043,0.00,VWS V14.00,2013-04-11 02:20:00,
2013-04-10 19:25:00,50.7,40.5,31.07,West,270,0.0,0.0,68,0.00,,SCT043,0.00,VWS V14.00,2013-04-11 02:25:00,
2013-04-10 19:30:00,50.5,40.7,31.07,NW,315,7.1,7.1,69,0.00,,SCT043,0.00,VWS V14.00,2013-04-11 02:30:00,
2013-04-10 19:35:00,50.1,40.3,31.07,NNW,338,3.3,3.3,69,0.00,,SCT043,0.00,VWS V14.00,2013-04-11 02:35:00,
2013-04-10 19:40:00,50.0,40.2,31.07,NW,315,5.1,5.1,69,0.00,,SCT043,0.00,VWS V14.00,2013-04-11 02:40:00,
2013-04-10 19:44:00,49.8,40.4,31.07,NNW,338,2.0,2.0,70,0.00,,BKN043,0.00,VWS V14.00,2013-04-11 02:44:00,
2013-04-10 19:49:00,49.6,40.2,31.07,NNW,338,6.7,6.7,70,0.00,,BKN043,0.00,VWS V14.00,2013-04-11 02:49:00,
2013-04-10 19:54:00,49.6,40.2,31.08,NNW,338,0.0,0.0,70,0.00,,BKN043,0.00,VWS V14.00,2013-04-11 02:54:00,
2013-04-10 19:59:00,49.2,39.8,31.08,NNW,338,4.2,4.2,70,0.00,,BKN043,0.00,VWS V14.00,2013-04-11 02:59:00,
2013-04-10 20:04:00,49.2,39.8,31.08,NNW,338,0.0,0.0,70,0.00,,BKN043,0.00,VWS V14.00,2013-04-11 03:04:00,
2013-04-10 20:09:00,49.2,39.8,31.08,NW,315,0.0,0.0,70,0.00,,BKN043,0.00,VWS V14.00,2013-04-11 03:09:00,
2013-04-10 20:14:00,49.1,39.8,31.08,NW,315,0.0,0.0,70,0.00,,BKN043,0.00,VWS V14.00,2013-04-11 03:14:00,
2013-04-10 20:19:00,49.1,40.1,31.08,NW,315,3.3,3.3,71,0.00,,BKN043,0.00,VWS V14.00,2013-04-11 03:19:00,
2013-04-10 20:24:00,49.1,40.1,31.09,NNW,338,0.0,0.0,71,0.00,,BKN043,0.00,VWS V14.00,2013-04-11 03:24:00,
2013-04-10 20:29:00,49.1,40.1,31.09,NNW,338,0.0,0.0,71,0.00,,BKN043,0.00,VWS V14.00,2013-04-11 03:29:00,
2013-04-10 20:34:00,48.9,39.9,31.09,West,270,2.2,2.2,71,0.00,,BKN043,0.00,VWS V14.00,2013-04-11 03:34:00,
2013-04-10 20:39:00,48.9,39.6,31.10,WNW,292,1.5,1.5,70,0.00,,BKN043,0.00,VWS V14.00,2013-04-11 03:39:00,
2013-04-10 20:44:00,48.9,39.2,31.10,West,270,2.6,2.6,69,0.00,,BKN045,0.00,VWS V14.00,2013-04-11 03:44:00,
2013-04-10 20:49:00,48.9,39.2,31.10,West,270,0.0,0.0,69,0.00,,BKN045,0.00,VWS V14.00,2013-04-11 03:49:00,
2013-04-10 20:54:00,48.7,39.0,31.10,West,270,0.0,0.0,69,0.00,,BKN045,0.00,VWS V14.00,2013-04-11 03:54:00,
2013-04-10 20:59:00,48.7,39.0,31.10,West,270,0.0,0.0,69,0.00,,BKN045,0.00,VWS V14.00,2013-04-11 03:59:00,
2013-04-10 21:00:00,48.7,39.0,31.10,West,270,0.0,0.0,69,0.00,,BKN045,0.00,VWS V14.00,2013-04-11 04:00:00,
2013-04-10 21:05:00,48.7,39.0,31.10,West,270,0.0,0.0,69,0.00,,BKN045,0.00,VWS V14.00,2013-04-11 04:05:00,
2013-04-10 21:10:00,48.7,39.4,31.11,West,270,0.0,0.0,70,0.00,,BKN045,0.00,VWS V14.00,2013-04-11 04:10:00,
2013-04-10 21:15:00,48.5,39.2,31.11,West,270,0.0,0.0,70,0.00,,BKN045,0.00,VWS V14.00,2013-04-11 04:15:00,
2013-04-10 21:20:00,48.5,39.2,31.12,West,270,0.0,0.0,70,0.00,,BKN045,0.00,VWS V14.00,2013-04-11 04:20:00,
2013-04-10 21:25:00,48.5,39.2,31.12,West,270,0.0,0.0,70,0.00,,BKN045,0.00,VWS V14.00,2013-04-11 04:25:00,
2013-04-10 21:30:00,48.3,39.0,31.12,West,270,0.0,0.0,70,0.00,,BKN045,0.00,VWS V14.00,2013-04-11 04:30:00,
2013-04-10 21:35:00,48.3,39.0,31.12,West,270,0.0,0.0,70,0.00,,BKN045,0.00,VWS V14.00,2013-04-11 04:35:00,
2013-04-10 21:40:00,48.3,39.3,31.12,West,270,0.0,0.0,71,0.00,,OVC045,0.00,VWS V14.00,2013-04-11 04:40:00,
2013-04-10 21:45:00,48.2,39.2,31.12,West,270,0.0,0.0,71,0.00,,OVC045,0.00,VWS V14.00,2013-04-11 04:45:00,
2013-04-10 21:50:00,48.2,39.2,31.12,West,270,0.0,0.0,71,0.00,,OVC045,0.00,VWS V14.00,2013-04-11 04:50:00,
2013-04-10 21:55:00,48.2,39.2,31.13,West,270,0.0,0.0,71,0.00,,OVC045,0.00,VWS V14.00,2013-04-11 04:55:00,
2013-04-10 22:00:00,48.0,39.1,31.13,West,270,0.0,0.0,71,0.00,,OVC045,0.00,VWS V14.00,2013-04-11 05:00:00,
2013-04-10 22:05:00,47.8,39.2,31.13,West,270,0.0,0.0,72,0.00,,OVC045,0.00,VWS V14.00,2013-04-11 05:05:00,
2013-04-10 22:10:00,47.8,39.2,31.13,West,270,0.0,0.0,72,0.00,,OVC045,0.00,VWS V14.00,2013-04-11 05:10:00,
2013-04-10 22:15:00,47.4,38.8,31.13,West,270,0.0,0.0,72,0.00,,OVC045,0.00,VWS V14.00,2013-04-11 05:15:00,
2013-04-10 22:20:00,47.4,38.8,31.13,West,270,0.0,0.0,72,0.00,,OVC045,0.00,VWS V14.00,2013-04-11 05:20:00,
2013-04-10 22:25:00,47.4,38.8,31.13,West,270,0.0,0.0,72,0.00,,OVC045,0.00,VWS V14.00,2013-04-11 05:25:00,
2013-04-10 22:30:00,47.4,39.2,31.13,West,270,0.0,0.0,73,0.00,,OVC045,0.00,VWS V14.00,2013-04-11 05:30:00,
2013-04-10 22:35:00,47.4,39.2,31.13,West,270,0.0,0.0,73,0.00,,OVC045,0.00,VWS V14.00,2013-04-11 05:35:00,
2013-04-10 22:40:00,47.4,39.2,31.14,West,270,0.0,0.0,73,0.00,,OVC047,0.00,VWS V14.00,2013-04-11 05:40:00,
2013-04-10 22:45:00,47.4,39.2,31.14,West,270,0.0,0.0,73,0.00,,OVC047,0.00,VWS V14.00,2013-04-11 05:45:00,
2013-04-10 22:50:00,47.4,39.2,31.13,West,270,0.0,0.0,73,0.00,,OVC047,0.00,VWS V14.00,2013-04-11 05:50:00,
2013-04-10 22:55:00,47.4,39.2,31.14,West,270,0.0,0.0,73,0.00,,OVC047,0.00,VWS V14.00,2013-04-11 05:55:00,
2013-04-10 23:00:00,47.4,39.2,31.14,West,270,0.0,0.0,73,0.00,,OVC047,0.00,VWS V14.00,2013-04-11 06:00:00,
2013-04-10 23:05:00,47.4,39.2,31.14,West,270,0.0,0.0,73,0.00,,OVC047,0.00,VWS V14.00,2013-04-11 06:05:00,
2013-04-10 23:10:00,47.4,39.2,31.14,West,270,0.0,0.0,73,0.00,,OVC047,0.00,VWS V14.00,2013-04-11 06:10:00,
2013-04-10 23:15:00,47.4,39.2,31.14,West,270,0.0,0.0,73,0.00,,OVC047,0.00,VWS V14.00,2013-04-11 06:15:00,
2013-04-10 23:20:00,47.4,39.5,31.14,West,270,0.0,0.0,74,0.00,,OVC047,0.00,VWS V14.00,2013-04-11 06:20:00,
2013-04-10 23:25:00,47.1,39.2,31.14,WNW,292,0.0,0.0,74,0.00,,OVC047,0.00,VWS V14.00,2013-04-11 06:25:00,
2013-04-10 23:30:00,46.7,39.2,31.15,WNW,292,0.0,0.0,75,0.00,,OVC047,0.00,VWS V14.00,2013-04-11 06:30:00,
2013-04-10 23:35:00,46.5,39.4,31.15,WNW,292,0.0,0.0,76,0.00,,OVC047,0.00,VWS V14.00,2013-04-11 06:35:00,
2013-04-10 23:40:00,46.4,39.3,31.15,WNW,292,0.0,0.0,76,0.00,,OVC045,0.00,VWS V14.00,2013-04-11 06:40:00,
2013-04-10 23:45:00,46.4,39.3,31.15,WNW,292,0.0,0.0,76,0.00,,OVC045,0.00,VWS V14.00,2013-04-11 06:45:00,
2013-04-10 23:50:00,46.2,39.4,31.15,WNW,292,0.0,0.0,77,0.00,,OVC045,0.00,VWS V14.00,2013-04-11 06:50:00,
2013-04-10 23:55:00,46.2,39.1,31.15,WNW,292,0.0,0.0,76,0.00,,OVC045,0.00,VWS V14.00,2013-04-11 06:55:00,